Time;durP1;ratioP1;P1;durP2;ratioP2;P2;SDS_P1;SDS_P2;PMS_P1;PMS_P2;Temp;Humidity;BMP_temperature;BMP_pressure;BME280_temperature;BME280_humidity;BME280_pressure;Samples;Min_cycle;Max_cycle;Signal;HPM_P1;HPM_P2
2021/12/27 00:01:18;;;;;;;12.80;11.50;;;5.20;99.90;;;;;;5042363;28;20188;-87
2021/12/27 00:03:44;;;;;;;13.40;12.10;;;5.30;99.90;;;;;;5039322;28;20200;-87
2021/12/27 00:06:10;;;;;;;12.20;11.00;;;5.40;99.90;;;;;;5044081;28;20193;-87
2021/12/27 00:08:41;;;;;;;13.63;12.33;;;5.40;99.90;;;;;;5047398;28;20693;-88
2021/12/27 00:11:08;;;;;;;15.10;12.73;;;5.40;99.90;;;;;;5041842;28;20185;-88
2021/12/27 00:13:34;;;;;;;15.00;13.40;;;5.20;99.90;;;;;;5052541;28;20231;-87
2021/12/27 00:16:00;;;;;;;13.20;11.93;;;4.90;99.90;;;;;;5043124;28;20209;-86
2021/12/27 00:18:26;;;;;;;12.20;11.00;;;4.80;99.90;;;;;;5036857;28;20216;-87
2021/12/27 00:20:52;;;;;;;12.43;11.23;;;4.80;99.90;;;;;;5045066;28;20673;-87
2021/12/27 00:23:18;;;;;;;12.73;11.43;;;5.00;99.90;;;;;;5055619;28;20208;-87
2021/12/27 00:25:43;;;;;;;11.57;10.47;;;5.20;99.90;;;;;;5040727;28;20201;-87
2021/12/27 00:28:09;;;;;;;12.43;11.13;;;5.30;99.90;;;;;;5038490;28;20217;-86
2021/12/27 00:30:35;;;;;;;12.47;11.17;;;5.30;99.90;;;;;;5040982;28;20193;-86
2021/12/27 00:33:01;;;;;;;11.40;10.30;;;5.20;99.90;;;;;;5033248;28;20212;-87
2021/12/27 00:35:29;;;;;;;12.40;11.20;;;5.20;99.90;;;;;;5031856;28;20181;-86
2021/12/27 00:37:55;;;;;;;12.30;11.10;;;5.10;99.90;;;;;;5038932;28;20652;-87
2021/12/27 00:40:21;;;;;;;11.60;10.50;;;5.20;99.90;;;;;;5037158;28;20224;-87
2021/12/27 00:42:49;;;;;;;10.93;9.83;;;5.20;99.90;;;;;;5041062;28;20200;-87
2021/12/27 00:45:15;;;;;;;12.30;11.10;;;5.30;99.90;;;;;;5039753;28;20181;-87
2021/12/27 00:47:41;;;;;;;13.07;11.77;;;5.20;99.90;;;;;;5037362;28;20217;-87
2021/12/27 00:50:07;;;;;;;11.57;10.47;;;5.20;99.90;;;;;;5034963;28;20215;-86
2021/12/27 00:52:35;;;;;;;11.97;10.77;;;5.30;99.90;;;;;;5038490;28;20180;-86
2021/12/27 00:55:05;;;;;;;12.47;11.27;;;5.20;99.90;;;;;;5020457;28;20431;-86
2021/12/27 00:57:31;;;;;;;11.67;10.53;;;5.10;99.90;;;;;;5037524;28;20173;-86
2021/12/27 00:59:57;;;;;;;11.07;10.03;;;5.10;99.90;;;;;;5041997;28;20270;-85
2021/12/27 01:02:23;;;;;;;10.70;9.70;;;5.20;99.90;;;;;;5043727;28;20181;-86
2021/12/27 01:04:49;;;;;;;10.20;9.30;;;5.30;99.90;;;;;;5041026;28;20215;-86
2021/12/27 01:07:14;;;;;;;10.67;9.57;;;5.30;99.90;;;;;;5034150;28;20244;-86
2021/12/27 01:17:46;;;;;;;10.60;9.57;;;5.40;99.90;;;;;;5041056;28;20210;-86
2021/12/27 01:20:15;;;;;;;11.10;10.00;;;5.40;99.90;;;;;;5039328;28;20323;-86
2021/12/27 01:22:41;;;;;;;11.83;10.73;;;5.30;99.90;;;;;;5042044;28;20197;-86
2021/12/27 01:25:10;;;;;;;11.50;10.40;;;5.20;99.90;;;;;;5038923;28;20242;-86
2021/12/27 01:27:36;;;;;;;12.47;11.17;;;5.10;99.90;;;;;;5032221;28;20216;-87
2021/12/27 01:30:07;;;;;;;14.37;11.93;;;5.10;99.90;;;;;;5042683;28;20219;-86
2021/12/27 01:32:38;;;;;;;15.70;11.70;;;5.10;99.90;;;;;;5039252;28;20246;-87
2021/12/27 01:35:04;;;;;;;12.63;11.40;;;5.20;99.90;;;;;;5038472;28;20213;-87
2021/12/27 01:37:30;;;;;;;15.43;13.23;;;5.10;99.90;;;;;;5040658;28;20177;-86
2021/12/27 01:39:57;;;;;;;18.40;13.43;;;5.10;99.90;;;;;;5041563;28;20339;-86
2021/12/27 01:42:23;;;;;;;16.53;13.50;;;5.00;99.90;;;;;;5037168;28;20193;-86
2021/12/27 01:44:49;;;;;;;16.87;13.63;;;4.90;99.90;;;;;;5032630;28;20199;-86
2021/12/27 01:47:15;;;;;;;21.80;15.10;;;4.90;99.90;;;;;;5037949;28;20185;-86
2021/12/27 01:49:40;;;;;;;21.33;13.57;;;4.80;99.90;;;;;;5036496;28;20297;-86
2021/12/27 01:52:06;;;;;;;19.83;14.53;;;4.80;99.90;;;;;;5037879;28;20200;-86
2021/12/27 01:54:32;;;;;;;21.70;14.67;;;4.80;99.90;;;;;;5038021;28;20648;-87
2021/12/27 01:56:59;;;;;;;18.63;13.33;;;4.80;99.90;;;;;;5032640;28;20196;-87
2021/12/27 01:59:25;;;;;;;18.33;14.60;;;4.90;99.90;;;;;;5031232;28;20223;-87
2021/12/27 02:01:51;;;;;;;18.73;13.03;;;5.00;99.90;;;;;;5036136;28;20242;-86
2021/12/27 02:04:17;;;;;;;19.63;14.77;;;5.10;99.90;;;;;;5037774;28;20220;-86
2021/12/27 02:06:43;;;;;;;21.77;15.13;;;5.00;99.90;;;;;;5031457;28;20193;-86
2021/12/27 02:09:10;;;;;;;24.10;16.00;;;5.00;99.90;;;;;;5038161;28;20291;-86
2021/12/27 02:11:36;;;;;;;23.13;15.47;;;5.20;99.90;;;;;;5033459;28;20216;-86
2021/12/27 02:14:04;;;;;;;20.27;14.50;;;5.10;99.90;;;;;;5037670;28;20213;-85
2021/12/27 02:16:30;;;;;;;19.67;15.10;;;5.10;99.90;;;;;;5040336;28;20363;-86
2021/12/27 02:18:56;;;;;;;20.80;14.97;;;5.10;99.90;;;;;;5030709;28;20249;-86
2021/12/27 02:21:23;;;;;;;33.03;15.93;;;5.10;99.90;;;;;;5037991;28;20212;-85
2021/12/27 02:23:52;;;;;;;34.53;17.37;;;5.10;99.90;;;;;;5039506;28;20189;-86
2021/12/27 02:26:18;;;;;;;21.80;15.00;;;5.00;99.90;;;;;;5019753;28;20189;-86
2021/12/27 02:28:45;;;;;;;19.77;15.83;;;4.90;99.90;;;;;;5037730;28;20240;-86
2021/12/27 02:31:10;;;;;;;21.93;17.00;;;5.10;99.90;;;;;;5030101;28;20678;-87
2021/12/27 02:33:39;;;;;;;19.73;15.63;;;5.30;99.90;;;;;;5021555;28;20205;-86
2021/12/27 02:36:06;;;;;;;24.53;16.10;;;5.20;99.90;;;;;;5036312;28;20193;-86
2021/12/27 02:38:35;;;;;;;29.90;16.60;;;5.20;99.90;;;;;;5035232;28;20276;-86
2021/12/27 02:41:01;;;;;;;30.70;16.33;;;5.30;99.90;;;;;;5029204;28;20185;-87
2021/12/27 02:43:29;;;;;;;20.27;15.73;;;5.30;99.90;;;;;;5037056;28;20225;-87
2021/12/27 02:45:58;;;;;;;19.67;14.60;;;5.20;99.90;;;;;;5037853;28;20189;-87
2021/12/27 02:48:27;;;;;;;18.73;15.40;;;5.30;99.90;;;;;;5038706;28;20226;-86
2021/12/27 02:50:53;;;;;;;26.97;15.37;;;5.30;99.90;;;;;;5042997;28;20276;-87
2021/12/27 02:53:21;;;;;;;18.67;15.87;;;5.20;99.90;;;;;;5040579;28;20204;-86
2021/12/27 02:55:49;;;;;;;31.73;16.87;;;5.20;99.90;;;;;;5039731;28;20200;-86
2021/12/27 02:58:15;;;;;;;31.30;16.67;;;5.20;99.90;;;;;;5058485;28;20209;-86
2021/12/27 03:00:50;;;;;;;23.43;15.90;;;5.30;99.90;;;;;;5042713;28;20629;-87
2021/12/27 03:03:16;;;;;;;18.60;15.53;;;5.30;99.90;;;;;;5038500;28;20227;-87
2021/12/27 03:05:43;;;;;;;18.27;15.13;;;5.40;99.90;;;;;;5037667;28;20197;-86
2021/12/27 03:08:14;;;;;;;19.93;15.67;;;5.40;99.90;;;;;;5058404;28;20185;-86
2021/12/27 03:10:45;;;;;;;19.77;14.77;;;5.50;99.90;;;;;;5041480;28;20268;-86
2021/12/27 03:13:28;;;;;;;16.80;14.43;;;5.50;99.90;;;;;;5034999;28;20213;-87
2021/12/27 03:15:55;;;;;;;15.60;13.37;;;5.40;99.90;;;;;;5033477;28;20546;-86
2021/12/27 03:18:21;;;;;;;16.00;13.00;;;5.40;99.90;;;;;;5040554;28;20704;-87
2021/12/27 03:20:48;;;;;;;15.60;14.10;;;5.40;99.90;;;;;;5037144;28;20195;-87
2021/12/27 03:23:13;;;;;;;15.73;14.03;;;5.40;99.90;;;;;;5028824;28;20199;-87
2021/12/27 03:25:40;;;;;;;16.87;14.93;;;5.40;99.90;;;;;;5034540;28;20182;-87
2021/12/27 03:28:06;;;;;;;17.83;15.30;;;5.40;99.90;;;;;;5039240;28;20239;-86
2021/12/27 03:30:32;;;;;;;15.70;14.07;;;5.30;99.90;;;;;;5023910;28;20196;-87
2021/12/27 03:32:58;;;;;;;16.87;15.07;;;5.30;99.90;;;;;;5045276;28;20253;-86
2021/12/27 03:35:34;;;;;;;18.60;15.50;;;5.20;99.90;;;;;;5041062;28;20189;-86
2021/12/27 03:38:01;;;;;;;17.67;15.17;;;5.30;99.90;;;;;;5041411;28;20204;-86
2021/12/27 03:40:27;;;;;;;18.53;14.90;;;5.40;99.90;;;;;;5032074;28;20228;-85
2021/12/27 03:42:55;;;;;;;15.23;13.50;;;5.50;99.90;;;;;;5039890;28;20192;-86
2021/12/27 03:45:24;;;;;;;15.47;13.87;;;5.50;99.90;;;;;;5040406;28;20189;-86
2021/12/27 03:47:50;;;;;;;16.67;14.80;;;5.50;99.90;;;;;;5041358;28;20188;-85
2021/12/27 03:50:16;;;;;;;16.93;14.10;;;5.40;99.90;;;;;;5031311;28;20210;-86
2021/12/27 03:52:42;;;;;;;15.93;14.03;;;5.50;99.90;;;;;;5041190;28;20264;-85
2021/12/27 03:55:10;;;;;;;15.57;13.83;;;5.60;99.90;;;;;;5039122;28;20244;-86
2021/12/27 03:57:39;;;;;;;15.87;14.17;;;5.50;99.90;;;;;;5032517;28;20190;-86
2021/12/27 04:02:47;;;;;;;14.77;13.30;;;5.50;99.90;;;;;;5039588;28;20181;-86
2021/12/27 04:05:15;;;;;;;14.80;13.20;;;5.50;99.90;;;;;;5030858;28;20189;-86
2021/12/27 04:07:43;;;;;;;15.23;13.63;;;5.60;99.90;;;;;;5029504;28;20196;-86
2021/12/27 04:10:11;;;;;;;14.63;13.13;;;5.60;99.90;;;;;;5032821;28;20206;-86
2021/12/27 04:12:37;;;;;;;14.07;12.57;;;5.60;99.90;;;;;;5030664;28;20266;-86
2021/12/27 04:15:06;;;;;;;14.40;13.00;;;5.60;99.90;;;;;;5038624;28;20292;-86
2021/12/27 04:17:32;;;;;;;14.00;12.63;;;5.50;99.90;;;;;;5041159;28;20197;-87
2021/12/27 04:19:58;;;;;;;14.10;12.70;;;5.60;99.90;;;;;;5036931;28;20213;-86
2021/12/27 04:22:24;;;;;;;13.93;12.47;;;5.70;99.90;;;;;;5032500;28;20197;-86
2021/12/27 04:24:50;;;;;;;15.10;13.60;;;5.70;99.90;;;;;;5041478;28;20185;-86
2021/12/27 04:27:16;;;;;;;15.70;14.10;;;5.70;99.90;;;;;;5036990;28;20202;-86
2021/12/27 04:29:42;;;;;;;15.83;13.30;;;5.70;99.90;;;;;;5039138;28;20216;-87
2021/12/27 04:32:08;;;;;;;14.47;12.97;;;5.70;99.90;;;;;;5029858;28;20185;-86
2021/12/27 04:34:35;;;;;;;14.70;13.20;;;5.70;99.90;;;;;;5042219;28;20203;-86
2021/12/27 04:37:01;;;;;;;13.43;12.03;;;5.70;99.90;;;;;;5036014;28;20189;-87
2021/12/27 04:39:27;;;;;;;14.47;12.97;;;5.60;99.90;;;;;;5041419;28;20217;-86
2021/12/27 04:41:55;;;;;;;14.00;12.53;;;5.70;99.90;;;;;;5037014;28;20226;-86
2021/12/27 04:44:20;;;;;;;14.50;13.10;;;5.70;99.90;;;;;;5031991;28;20208;-87
2021/12/27 04:46:46;;;;;;;13.57;12.27;;;5.70;99.90;;;;;;5038423;28;20185;-86
2021/12/27 04:49:12;;;;;;;13.93;12.53;;;5.60;99.90;;;;;;5041596;28;20216;-86
2021/12/27 04:51:38;;;;;;;12.57;11.27;;;5.50;99.90;;;;;;5040022;28;20208;-86
2021/12/27 04:54:05;;;;;;;13.97;12.57;;;5.50;99.90;;;;;;5037084;28;20215;-86
2021/12/27 04:56:31;;;;;;;12.93;11.63;;;5.50;99.90;;;;;;5038924;28;20207;-86
2021/12/27 04:58:56;;;;;;;13.00;11.70;;;5.60;99.90;;;;;;5040845;28;20962;-86
2021/12/27 05:01:23;;;;;;;14.67;13.20;;;5.60;99.90;;;;;;5037158;28;20192;-86
2021/12/27 05:03:49;;;;;;;14.43;13.00;;;5.60;99.90;;;;;;5040265;28;20181;-86
2021/12/27 05:06:15;;;;;;;13.30;12.03;;;5.60;99.90;;;;;;5038940;28;20192;-87
2021/12/27 05:08:41;;;;;;;14.17;12.77;;;5.70;99.90;;;;;;5040511;28;20208;-86
2021/12/27 05:11:08;;;;;;;13.13;11.83;;;5.80;99.90;;;;;;5037534;28;20664;-87
2021/12/27 05:13:35;;;;;;;13.60;12.30;;;5.80;99.90;;;;;;5025854;28;20229;-86
2021/12/27 05:16:02;;;;;;;13.30;12.00;;;5.80;99.90;;;;;;5036926;28;20191;-86
2021/12/27 05:18:28;;;;;;;12.50;11.20;;;5.80;99.90;;;;;;5042145;28;20699;-86
2021/12/27 05:20:54;;;;;;;12.00;10.80;;;5.80;99.90;;;;;;5039972;28;20185;-87
2021/12/27 05:23:22;;;;;;;12.47;11.17;;;5.70;99.90;;;;;;5034052;28;20188;-87
2021/12/27 05:25:48;;;;;;;13.40;12.10;;;5.80;99.90;;;;;;5035126;28;20200;-86
2021/12/27 05:28:14;;;;;;;13.37;12.03;;;5.90;99.90;;;;;;5040242;28;20189;-87
2021/12/27 05:30:41;;;;;;;12.80;11.50;;;6.00;99.90;;;;;;5037833;28;20203;-87
2021/12/27 05:33:07;;;;;;;11.43;10.33;;;6.00;99.90;;;;;;5039539;28;20196;-87
2021/12/27 05:35:33;;;;;;;13.07;11.77;;;5.90;99.90;;;;;;5038819;28;20181;-87
2021/12/27 05:37:58;;;;;;;12.40;11.20;;;5.80;99.90;;;;;;5038569;28;20281;-87
2021/12/27 05:40:24;;;;;;;13.53;12.33;;;5.80;99.90;;;;;;5038563;28;20208;-86
2021/12/27 05:42:53;;;;;;;12.23;11.13;;;5.90;99.90;;;;;;5029451;28;20199;-85
2021/12/27 05:45:19;;;;;;;12.30;11.00;;;5.90;99.90;;;;;;5041094;28;20253;-86
2021/12/27 05:47:45;;;;;;;13.53;12.23;;;5.90;99.90;;;;;;5012764;28;20600;-86
2021/12/27 05:50:12;;;;;;;12.90;11.60;;;5.80;99.90;;;;;;5044961;28;20216;-86
2021/12/27 05:52:39;;;;;;;13.87;12.57;;;5.90;99.90;;;;;;5050736;28;20157;-86
2021/12/27 05:55:06;;;;;;;13.10;11.77;;;6.00;99.90;;;;;;5041336;28;20216;-86
2021/12/27 05:57:32;;;;;;;13.43;12.13;;;5.90;99.90;;;;;;5021586;28;20196;-86
2021/12/27 05:59:58;;;;;;;12.17;10.97;;;5.80;99.90;;;;;;5031134;28;20212;-86
2021/12/27 06:02:25;;;;;;;11.87;10.77;;;5.80;99.90;;;;;;5022107;28;20811;-86
2021/12/27 06:04:51;;;;;;;11.93;10.73;;;5.80;99.90;;;;;;5020801;28;20201;-86
2021/12/27 06:07:17;;;;;;;11.23;10.23;;;5.80;99.90;;;;;;5038538;28;20189;-86
2021/12/27 06:09:43;;;;;;;11.67;10.40;;;5.80;99.90;;;;;;5032972;28;20300;-86
2021/12/27 06:12:09;;;;;;;12.77;11.47;;;5.80;99.90;;;;;;5020835;28;20201;-87
2021/12/27 06:14:35;;;;;;;12.50;11.30;;;5.80;99.90;;;;;;5013238;28;20224;-87
2021/12/27 06:17:01;;;;;;;13.40;12.03;;;6.00;99.90;;;;;;5034546;28;20189;-86
2021/12/27 06:19:27;;;;;;;12.97;11.67;;;5.90;99.90;;;;;;5035042;28;20263;-87
2021/12/27 06:21:53;;;;;;;13.10;11.80;;;5.90;99.90;;;;;;5018328;28;20201;-86
2021/12/27 06:24:19;;;;;;;20.90;18.53;;;5.80;99.90;;;;;;5023908;28;20189;-86
2021/12/27 06:26:44;;;;;;;18.63;14.93;;;5.60;99.90;;;;;;5028572;28;20243;-86
2021/12/27 06:29:10;;;;;;;16.63;14.93;;;5.60;99.90;;;;;;5037414;28;20239;-85
2021/12/27 06:31:36;;;;;;;12.43;11.20;;;5.60;99.90;;;;;;5032375;28;20190;-87
2021/12/27 06:34:02;;;;;;;23.90;21.90;;;5.60;99.90;;;;;;5032894;28;20232;-86
2021/12/27 06:36:28;;;;;;;14.17;12.67;;;5.70;99.90;;;;;;5016529;28;20216;-86
2021/12/27 06:38:54;;;;;;;13.23;11.93;;;5.60;99.90;;;;;;5009281;28;21824;-86
2021/12/27 06:41:24;;;;;;;13.47;11.90;;;5.50;99.90;;;;;;5031443;28;20215;-86
2021/12/27 06:43:51;;;;;;;12.20;10.90;;;5.60;99.90;;;;;;5033342;28;20214;-86
2021/12/27 06:46:17;;;;;;;11.37;10.30;;;5.50;99.90;;;;;;5037430;28;20203;-85
2021/12/27 06:48:43;;;;;;;12.90;11.60;;;5.50;99.90;;;;;;5037733;28;20212;-86
2021/12/27 06:51:09;;;;;;;12.60;11.33;;;5.50;99.90;;;;;;5033723;28;20342;-86
2021/12/27 06:53:35;;;;;;;11.50;10.40;;;5.60;99.90;;;;;;5027033;28;20232;-86
2021/12/27 06:56:02;;;;;;;12.63;11.13;;;5.60;99.90;;;;;;5035579;28;20379;-86
2021/12/27 06:58:28;;;;;;;11.67;10.57;;;5.60;99.90;;;;;;5032779;28;20206;-86
2021/12/27 07:00:54;;;;;;;11.97;10.83;;;5.70;99.90;;;;;;5029240;28;20192;-87
2021/12/27 07:03:20;;;;;;;13.83;12.43;;;5.70;99.90;;;;;;5020755;28;20269;-87
2021/12/27 07:05:46;;;;;;;11.60;10.50;;;5.80;99.90;;;;;;5030661;28;20190;-86
2021/12/27 07:08:11;;;;;;;12.07;10.73;;;5.70;99.90;;;;;;5037033;28;20283;-86
2021/12/27 07:10:37;;;;;;;12.10;10.80;;;5.70;99.90;;;;;;5037194;28;20588;-86
2021/12/27 07:13:04;;;;;;;12.40;11.20;;;5.80;99.90;;;;;;5038818;28;20279;-86
2021/12/27 07:15:30;;;;;;;11.97;10.77;;;5.80;99.90;;;;;;5035205;28;20231;-86
2021/12/27 07:17:57;;;;;;;11.70;10.60;;;5.80;99.90;;;;;;5037058;28;20966;-87
2021/12/27 07:20:23;;;;;;;12.20;10.73;;;5.80;99.90;;;;;;5037479;28;20210;-86
2021/12/27 07:22:50;;;;;;;11.67;10.47;;;5.70;99.90;;;;;;5037538;28;20207;-86
2021/12/27 07:25:16;;;;;;;11.37;10.27;;;5.70;99.90;;;;;;5037548;28;20266;-86
2021/12/27 07:27:42;;;;;;;11.57;10.43;;;5.80;99.90;;;;;;5036505;28;20213;-86
2021/12/27 07:30:10;;;;;;;15.37;13.87;;;5.70;99.90;;;;;;5037054;28;20217;-86
2021/12/27 07:32:37;;;;;;;15.03;13.43;;;5.70;99.90;;;;;;5037878;28;20189;-86
2021/12/27 07:35:05;;;;;;;13.10;11.90;;;5.60;99.90;;;;;;5022285;28;20263;-86
2021/12/27 07:37:31;;;;;;;12.37;10.97;;;5.60;99.90;;;;;;5037170;28;20182;-86
2021/12/27 07:39:57;;;;;;;13.87;12.50;;;5.60;99.90;;;;;;5005775;28;20231;-86
2021/12/27 07:42:22;;;;;;;11.50;10.30;;;5.70;99.90;;;;;;5033684;28;20698;-86
2021/12/27 07:44:48;;;;;;;11.93;10.73;;;5.70;99.90;;;;;;5024938;28;20196;-87
2021/12/27 07:47:14;;;;;;;12.00;10.80;;;5.70;99.90;;;;;;5038462;28;20202;-86
2021/12/27 07:49:40;;;;;;;11.70;10.50;;;5.80;99.90;;;;;;5031921;28;20311;-87
2021/12/27 07:52:07;;;;;;;10.97;9.93;;;5.80;99.90;;;;;;5037366;28;20191;-86
2021/12/27 07:54:33;;;;;;;12.40;11.10;;;5.70;99.90;;;;;;5040658;28;20726;-86
2021/12/27 07:57:00;;;;;;;10.57;9.47;;;5.70;99.90;;;;;;5041251;28;20555;-87
2021/12/27 07:59:27;;;;;;;12.33;10.37;;;5.70;99.90;;;;;;5042282;28;20292;-86
2021/12/27 08:01:53;;;;;;;11.97;10.67;;;5.80;99.90;;;;;;5022282;28;20200;-86
2021/12/27 08:04:19;;;;;;;10.57;9.47;;;5.70;99.90;;;;;;5038940;28;20201;-86
2021/12/27 08:06:44;;;;;;;11.70;10.50;;;5.80;99.90;;;;;;5029054;28;20188;-86
2021/12/27 08:09:10;;;;;;;11.73;10.50;;;5.90;99.90;;;;;;5025003;28;20213;-86
2021/12/27 08:11:36;;;;;;;11.77;10.67;;;5.90;99.90;;;;;;5042993;28;20197;-86
2021/12/27 08:14:03;;;;;;;26.00;17.67;;;5.80;99.90;;;;;;5040897;28;20216;-86
2021/12/27 08:16:29;;;;;;;23.63;21.20;;;5.90;99.90;;;;;;5005501;28;20193;-86
2021/12/27 08:18:56;;;;;;;12.07;10.87;;;5.70;99.90;;;;;;5042229;28;20221;-86
2021/12/27 08:21:24;;;;;;;12.80;11.43;;;5.80;99.90;;;;;;5042137;28;20216;-87
2021/12/27 08:23:50;;;;;;;11.23;10.13;;;5.90;99.90;;;;;;5037062;28;20224;-86
2021/12/27 08:26:18;;;;;;;10.93;9.83;;;5.80;99.90;;;;;;5048743;28;20192;-86
2021/12/27 08:28:46;;;;;;;12.03;10.73;;;5.80;99.90;;;;;;5052850;28;20222;-86
2021/12/27 08:31:12;;;;;;;11.90;10.70;;;5.70;99.90;;;;;;5032477;28;20280;-86
2021/12/27 08:33:37;;;;;;;10.97;9.87;;;5.60;99.90;;;;;;5025500;28;20295;-86
2021/12/27 08:36:03;;;;;;;12.10;10.80;;;5.80;99.90;;;;;;5056353;28;20215;-86
2021/12/27 08:38:29;;;;;;;11.50;10.30;;;5.90;99.90;;;;;;5054812;28;20600;-86
2021/12/27 08:40:55;;;;;;;12.33;11.13;;;5.90;99.90;;;;;;5040322;28;20275;-86
2021/12/27 08:43:21;;;;;;;12.47;11.27;;;5.90;99.90;;;;;;5040558;28;20196;-86
2021/12/27 08:45:47;;;;;;;12.33;11.13;;;5.90;99.90;;;;;;5044586;28;20185;-86
2021/12/27 08:48:13;;;;;;;12.37;10.67;;;6.10;99.90;;;;;;5046202;28;20193;-86
2021/12/27 08:50:39;;;;;;;12.27;10.97;;;6.20;99.90;;;;;;5041341;28;20235;-86
2021/12/27 08:53:05;;;;;;;12.17;10.57;;;6.20;99.90;;;;;;5023578;28;20189;-85
2021/12/27 08:55:34;;;;;;;11.77;10.57;;;6.20;99.90;;;;;;5026575;28;20644;-86
2021/12/27 08:58:01;;;;;;;12.80;11.53;;;6.20;99.90;;;;;;5022810;28;20205;-86
2021/12/27 09:00:26;;;;;;;13.13;11.77;;;6.20;99.90;;;;;;5038125;28;20222;-87
2021/12/27 09:02:52;;;;;;;18.07;15.80;;;6.20;99.90;;;;;;5044070;28;20192;-86
2021/12/27 09:05:18;;;;;;;14.77;13.37;;;6.30;99.90;;;;;;5026778;28;20195;-86
2021/12/27 09:07:44;;;;;;;12.00;10.90;;;6.40;99.90;;;;;;5043252;28;20209;-86
2021/12/27 09:10:10;;;;;;;11.37;9.77;;;6.30;99.90;;;;;;5009094;28;20217;-87
2021/12/27 09:12:38;;;;;;;12.83;11.63;;;6.40;99.90;;;;;;5035243;28;20185;-86
2021/12/27 09:15:04;;;;;;;12.23;10.80;;;6.60;99.90;;;;;;5039281;28;20312;-86
2021/12/27 09:17:30;;;;;;;13.40;12.10;;;6.50;99.90;;;;;;5016552;28;20193;-86
2021/12/27 09:19:56;;;;;;;12.20;11.00;;;6.60;99.90;;;;;;5032882;28;20220;-87
2021/12/27 09:22:21;;;;;;;12.70;11.40;;;6.70;99.90;;;;;;5041833;28;20205;-86
2021/12/27 09:24:48;;;;;;;11.53;10.23;;;6.90;99.90;;;;;;5040882;28;20387;-86
2021/12/27 09:27:14;;;;;;;11.07;10.03;;;6.90;99.90;;;;;;5041059;28;20196;-86
2021/12/27 09:29:42;;;;;;;10.87;9.87;;;6.90;99.90;;;;;;5040264;28;20204;-86
2021/12/27 09:32:08;;;;;;;9.93;9.03;;;7.00;99.90;;;;;;5022889;28;20204;-86
2021/12/27 09:34:33;;;;;;;13.03;9.87;;;7.10;99.90;;;;;;5040151;28;20217;-86
2021/12/27 09:36:59;;;;;;;11.03;10.03;;;7.10;99.90;;;;;;5037501;28;20197;-87
2021/12/27 09:39:25;;;;;;;13.23;10.80;;;7.00;99.90;;;;;;5023205;28;20278;-86
2021/12/27 09:41:51;;;;;;;11.13;10.03;;;7.10;99.90;;;;;;5037258;28;20220;-84
2021/12/27 09:44:16;;;;;;;11.60;10.50;;;7.20;99.90;;;;;;5039165;28;20220;-86
2021/12/27 09:46:42;;;;;;;11.93;10.83;;;7.20;99.90;;;;;;5039681;28;20701;-87
2021/12/27 09:49:11;;;;;;;11.80;10.60;;;7.30;99.90;;;;;;5039846;28;20319;-86
2021/12/27 09:51:37;;;;;;;14.43;11.27;;;7.50;99.90;;;;;;5037564;28;20201;-85
2021/12/27 09:54:04;;;;;;;12.03;10.93;;;7.60;99.90;;;;;;5035200;28;20213;-86
2021/12/27 09:56:30;;;;;;;13.13;11.90;;;7.80;99.90;;;;;;5028949;28;20197;-86
2021/12/27 09:58:57;;;;;;;12.10;10.87;;;8.10;99.90;;;;;;5027698;28;20266;-86
2021/12/27 10:01:23;;;;;;;11.70;10.50;;;8.10;99.90;;;;;;5035334;28;20200;-86
2021/12/27 10:03:56;;;;;;;11.90;10.80;;;8.30;99.90;;;;;;5039766;28;20197;-87
2021/12/27 10:06:24;;;;;;;11.33;10.23;;;8.50;99.90;;;;;;5036935;28;20734;-86
2021/12/27 10:08:55;;;;;;;11.83;10.70;;;8.60;99.90;;;;;;5035602;28;20212;-85
2021/12/27 10:11:32;;;;;;;12.27;9.83;;;8.50;99.90;;;;;;5040970;28;20188;-85
2021/12/27 10:14:01;;;;;;;11.60;10.50;;;8.60;99.90;;;;;;5039562;28;20219;-85
2021/12/27 10:16:28;;;;;;;10.63;9.63;;;8.60;99.90;;;;;;5039699;28;20664;-85
2021/12/27 10:18:56;;;;;;;9.43;8.70;;;8.70;99.90;;;;;;5021841;28;20296;-86
2021/12/27 10:21:22;;;;;;;8.40;7.57;;;8.90;99.90;;;;;;5039241;28;20219;-86
2021/12/27 10:23:47;;;;;;;10.13;8.70;;;8.90;99.90;;;;;;5034941;28;20186;-86
2021/12/27 10:26:18;;;;;;;9.20;8.40;;;9.10;99.90;;;;;;5038757;28;20200;-85
2021/12/27 10:28:43;;;;;;;9.50;8.57;;;9.30;99.90;;;;;;5038097;28;20214;-86
2021/12/27 10:31:09;;;;;;;8.70;7.90;;;9.40;99.90;;;;;;5037736;28;20201;-86
2021/12/27 10:33:36;;;;;;;8.87;8.17;;;9.60;99.90;;;;;;5032752;28;20218;-86
2021/12/27 10:36:02;;;;;;;8.93;8.13;;;9.80;99.90;;;;;;5039250;28;20189;-87
2021/12/27 10:38:41;;;;;;;9.33;8.43;;;9.90;99.90;;;;;;5038389;28;20223;-86
2021/12/27 10:41:09;;;;;;;9.43;8.47;;;10.10;99.90;;;;;;5037305;28;20239;-86
2021/12/27 10:43:40;;;;;;;9.73;8.83;;;10.20;99.90;;;;;;5036044;28;20200;-87
2021/12/27 10:46:08;;;;;;;9.17;8.23;;;10.20;99.90;;;;;;5038704;28;20270;-87
2021/12/27 10:48:35;;;;;;;9.53;8.57;;;10.40;99.90;;;;;;5039474;28;20222;-87
2021/12/27 10:51:03;;;;;;;9.60;8.70;;;10.50;99.90;;;;;;5034808;28;20199;-86
2021/12/27 10:53:48;;;;;;;10.27;9.40;;;10.70;99.90;;;;;;5038898;28;20211;-86
2021/12/27 10:56:16;;;;;;;10.03;9.13;;;10.90;99.90;;;;;;5038593;28;20543;-86
2021/12/27 10:59:15;;;;;;;9.33;8.43;;;10.90;99.90;;;;;;5034264;28;20199;-85
2021/12/27 11:01:41;;;;;;;9.30;8.50;;;11.10;99.90;;;;;;5039760;28;20180;-86
2021/12/27 11:04:06;;;;;;;9.00;8.20;;;11.00;99.90;;;;;;5031818;28;20257;-86
2021/12/27 11:06:36;;;;;;;8.70;7.93;;;10.70;99.90;;;;;;5035371;28;20207;-86
2021/12/27 11:09:02;;;;;;;8.33;7.60;;;10.60;99.90;;;;;;5018957;28;20215;-85
2021/12/27 11:11:28;;;;;;;9.43;8.50;;;10.50;99.90;;;;;;5050670;28;20204;-86
2021/12/27 11:13:56;;;;;;;8.07;7.33;;;10.40;99.90;;;;;;5052267;28;20682;-86
2021/12/27 11:16:22;;;;;;;8.03;7.23;;;10.40;99.90;;;;;;5042103;28;20183;-87
2021/12/27 11:18:50;;;;;;;8.67;7.93;;;10.30;99.90;;;;;;5029906;28;20199;-87
2021/12/27 11:21:23;;;;;;;8.87;8.00;;;10.30;99.90;;;;;;5058820;28;20210;-86
2021/12/27 11:23:52;;;;;;;9.30;8.33;;;10.20;99.90;;;;;;5048676;28;20195;-87
2021/12/27 11:26:27;;;;;;;8.30;7.60;;;10.00;99.90;;;;;;5044728;28;20195;-87
2021/12/27 11:29:08;;;;;;;7.63;6.93;;;10.10;99.90;;;;;;5037874;28;20231;-86
2021/12/27 11:31:35;;;;;;;9.30;8.47;;;10.00;99.90;;;;;;5042280;28;20317;-86
2021/12/27 11:34:02;;;;;;;7.80;7.00;;;9.90;99.90;;;;;;5043312;28;20220;-86
2021/12/27 11:36:31;;;;;;;8.17;7.47;;;9.90;99.90;;;;;;5043650;28;20215;-86
2021/12/27 11:39:00;;;;;;;11.83;10.10;;;9.80;99.90;;;;;;5043299;28;20309;-86
2021/12/27 11:41:28;;;;;;;9.03;8.23;;;9.80;99.90;;;;;;5043616;28;20202;-86
2021/12/27 11:43:57;;;;;;;8.93;8.00;;;9.80;99.90;;;;;;5044876;28;20185;-87
2021/12/27 11:46:29;;;;;;;8.07;7.37;;;9.90;99.90;;;;;;5043583;28;20213;-86
2021/12/27 11:49:01;;;;;;;7.53;6.83;;;9.90;99.90;;;;;;5045128;28;20218;-86
2021/12/27 11:51:37;;;;;;;6.90;6.30;;;10.00;99.90;;;;;;5043181;28;20203;-86
2021/12/27 11:54:04;;;;;;;7.70;7.00;;;10.00;99.90;;;;;;5038849;28;20219;-86
2021/12/27 11:56:46;;;;;;;7.47;6.67;;;9.90;99.90;;;;;;5043087;28;20314;-86
2021/12/27 11:59:41;;;;;;;6.63;5.93;;;9.90;99.90;;;;;;5040870;28;20416;-86
2021/12/27 12:02:13;;;;;;;6.40;5.83;;;9.80;99.90;;;;;;5034146;28;20226;-87
2021/12/27 12:04:46;;;;;;;6.67;6.07;;;9.80;99.90;;;;;;5029092;28;20529;-87
2021/12/27 12:07:32;;;;;;;7.70;7.10;;;10.00;99.90;;;;;;5041290;28;20201;-87
2021/12/27 12:09:59;;;;;;;7.47;6.77;;;10.10;99.90;;;;;;5026702;28;20211;-87
2021/12/27 12:12:28;;;;;;;7.87;7.17;;;10.20;99.90;;;;;;5038918;28;20187;-87
2021/12/27 12:14:56;;;;;;;8.50;7.70;;;10.30;99.90;;;;;;5024917;28;20578;-86
2021/12/27 12:17:44;;;;;;;8.77;7.47;;;10.50;99.90;;;;;;5043085;28;20196;-87
2021/12/27 12:20:33;;;;;;;8.43;7.63;;;10.60;99.90;;;;;;5041483;28;20219;-87
2021/12/27 12:23:09;;;;;;;8.37;7.67;;;10.70;99.90;;;;;;5039819;28;20218;-86
2021/12/27 12:25:37;;;;;;;8.73;7.83;;;10.50;99.90;;;;;;5024059;28;20197;-86
2021/12/27 12:28:11;;;;;;;10.77;9.67;;;10.50;99.90;;;;;;5042784;28;20192;-87
2021/12/27 12:30:40;;;;;;;10.77;9.77;;;10.50;99.90;;;;;;5041399;28;20202;-85
2021/12/27 12:33:10;;;;;;;9.30;8.40;;;10.40;99.90;;;;;;5042171;28;20569;-86
2021/12/27 12:35:38;;;;;;;9.73;8.87;;;10.30;99.90;;;;;;5040807;28;20167;-87
2021/12/27 12:38:11;;;;;;;8.97;8.17;;;10.20;99.90;;;;;;5042803;28;20199;-87
2021/12/27 12:40:36;;;;;;;8.83;8.03;;;10.20;99.90;;;;;;5038665;28;20226;-86
2021/12/27 12:43:03;;;;;;;10.47;9.67;;;10.20;99.90;;;;;;5040643;28;20206;-87
2021/12/27 12:45:30;;;;;;;8.03;7.33;;;10.10;99.90;;;;;;5045086;28;20181;-86
2021/12/27 12:47:56;;;;;;;6.83;6.33;;;10.00;99.90;;;;;;5045165;28;20197;-86
2021/12/27 12:50:26;;;;;;;7.23;6.13;;;10.00;99.90;;;;;;5053580;28;20307;-86
2021/12/27 12:53:03;;;;;;;7.00;6.40;;;10.00;99.90;;;;;;5044307;28;20214;-87